sensor_id;sensor_type;location;lat;lon;timestamp;temperature;humidity
33815;DHT22;20121;51.910;8.406;2022-09-23T00:01:39;9.00;99.90
33815;DHT22;20121;51.910;8.406;2022-09-23T00:04:05;9.00;99.90
33815;DHT22;20121;51.910;8.406;2022-09-23T00:06:31;9.00;99.90
33815;DHT22;20121;51.910;8.406;2022-09-23T00:08:56;9.00;99.90
33815;DHT22;20121;51.910;8.406;2022-09-23T00:11:24;8.90;99.90
33815;DHT22;20121;51.910;8.406;2022-09-23T00:13:54;8.90;99.90
33815;DHT22;20121;51.910;8.406;2022-09-23T00:16:25;8.90;99.90
33815;DHT22;20121;51.910;8.406;2022-09-23T00:18:52;8.90;99.90
33815;DHT22;20121;51.910;8.406;2022-09-23T00:21:20;8.80;99.90
33815;DHT22;20121;51.910;8.406;2022-09-23T00:23:46;8.80;99.90
33815;DHT22;20121;51.910;8.406;2022-09-23T00:26:15;8.80;99.90
33815;DHT22;20121;51.910;8.406;2022-09-23T00:28:42;8.80;99.90
33815;DHT22;20121;51.910;8.406;2022-09-23T00:31:13;8.80;99.90
33815;DHT22;20121;51.910;8.406;2022-09-23T00:33:40;8.80;99.90
33815;DHT22;20121;51.910;8.406;2022-09-23T00:36:07;9.00;99.90
33815;DHT22;20121;51.910;8.406;2022-09-23T00:38:35;8.70;99.90
33815;DHT22;20121;51.910;8.406;2022-09-23T00:41:02;8.70;99.90
33815;DHT22;20121;51.910;8.406;2022-09-23T00:46:10;8.60;99.90
33815;DHT22;20121;51.910;8.406;2022-09-23T00:48:38;8.60;99.90
33815;DHT22;20121;51.910;8.406;2022-09-23T00:51:07;8.60;99.90
33815;DHT22;20121;51.910;8.406;2022-09-23T00:53:34;8.60;99.90
33815;DHT22;20121;51.910;8.406;2022-09-23T00:56:03;8.50;99.90
33815;DHT22;20121;51.910;8.406;2022-09-23T00:58:32;8.60;99.90
33815;DHT22;20121;51.910;8.406;2022-09-23T01:00:59;8.60;99.90
33815;DHT22;20121;51.910;8.406;2022-09-23T01:03:26;8.60;99.90
33815;DHT22;20121;51.910;8.406;2022-09-23T01:05:52;8.40;99.90
33815;DHT22;20121;51.910;8.406;2022-09-23T01:08:19;8.50;99.90
33815;DHT22;20121;51.910;8.406;2022-09-23T01:28:04;8.40;99.90
33815;DHT22;20121;51.910;8.406;2022-09-23T01:36:21;8.20;99.90
33815;DHT22;20121;51.910;8.406;2022-09-23T01:44:39;8.20;99.90
33815;DHT22;20121;51.910;8.406;2022-09-23T01:47:13;8.20;99.90
33815;DHT22;20121;51.910;8.406;2022-09-23T01:50:06;8.20;99.90
33815;DHT22;20121;51.910;8.406;2022-09-23T01:52:55;8.20;99.90
33815;DHT22;20121;51.910;8.406;2022-09-23T01:55:27;8.10;99.90
33815;DHT22;20121;51.910;8.406;2022-09-23T01:58:00;8.10;99.90
33815;DHT22;20121;51.910;8.406;2022-09-23T02:00:32;8.10;99.90
33815;DHT22;20121;51.910;8.406;2022-09-23T02:03:10;8.10;99.90
33815;DHT22;20121;51.910;8.406;2022-09-23T02:05:47;8.10;99.90
33815;DHT22;20121;51.910;8.406;2022-09-23T02:10:48;8.00;99.90
33815;DHT22;20121;51.910;8.406;2022-09-23T02:13:39;8.00;99.90
33815;DHT22;20121;51.910;8.406;2022-09-23T02:16:31;8.00;99.90
33815;DHT22;20121;51.910;8.406;2022-09-23T02:19:09;8.00;99.90
33815;DHT22;20121;51.910;8.406;2022-09-23T02:21:40;8.00;99.90
33815;DHT22;20121;51.910;8.406;2022-09-23T02:24:17;8.00;99.90
33815;DHT22;20121;51.910;8.406;2022-09-23T02:30:00;8.00;99.90
33815;DHT22;20121;51.910;8.406;2022-09-23T02:35:13;7.90;99.90
33815;DHT22;20121;51.910;8.406;2022-09-23T02:37:56;7.90;99.90
33815;DHT22;20121;51.910;8.406;2022-09-23T02:40:30;7.90;99.90
33815;DHT22;20121;51.910;8.406;2022-09-23T02:43:10;7.90;99.90
33815;DHT22;20121;51.910;8.406;2022-09-23T02:45:36;7.90;99.90
33815;DHT22;20121;51.910;8.406;2022-09-23T02:48:29;7.90;99.90
33815;DHT22;20121;51.910;8.406;2022-09-23T02:50:56;7.90;99.90
33815;DHT22;20121;51.910;8.406;2022-09-23T02:53:22;7.90;99.90
33815;DHT22;20121;51.910;8.406;2022-09-23T02:55:48;7.90;99.90
33815;DHT22;20121;51.910;8.406;2022-09-23T02:58:15;7.90;99.90
33815;DHT22;20121;51.910;8.406;2022-09-23T03:00:52;8.00;99.90
33815;DHT22;20121;51.910;8.406;2022-09-23T03:03:35;8.00;99.90
33815;DHT22;20121;51.910;8.406;2022-09-23T03:09:07;8.00;99.90
33815;DHT22;20121;51.910;8.406;2022-09-23T03:11:37;8.00;99.90
33815;DHT22;20121;51.910;8.406;2022-09-23T03:14:18;8.00;99.90
33815;DHT22;20121;51.910;8.406;2022-09-23T03:16:55;8.00;99.90
33815;DHT22;20121;51.910;8.406;2022-09-23T03:19:47;8.00;99.90
33815;DHT22;20121;51.910;8.406;2022-09-23T03:22:20;8.00;99.90
33815;DHT22;20121;51.910;8.406;2022-09-23T03:24:47;8.00;99.90
33815;DHT22;20121;51.910;8.406;2022-09-23T03:27:17;8.00;99.90
33815;DHT22;20121;51.910;8.406;2022-09-23T03:29:47;8.00;99.90
33815;DHT22;20121;51.910;8.406;2022-09-23T03:32:18;8.00;99.90
33815;DHT22;20121;51.910;8.406;2022-09-23T03:34:48;8.00;99.90
33815;DHT22;20121;51.910;8.406;2022-09-23T03:42:40;8.00;99.90
33815;DHT22;20121;51.910;8.406;2022-09-23T03:45:09;8.00;99.90
33815;DHT22;20121;51.910;8.406;2022-09-23T03:47:37;8.00;99.90
33815;DHT22;20121;51.910;8.406;2022-09-23T03:50:04;8.00;99.90
33815;DHT22;20121;51.910;8.406;2022-09-23T03:52:30;8.00;99.90
33815;DHT22;20121;51.910;8.406;2022-09-23T03:54:55;8.00;99.90
33815;DHT22;20121;51.910;8.406;2022-09-23T03:57:22;7.70;99.90
33815;DHT22;20121;51.910;8.406;2022-09-23T03:59:48;7.90;99.90
33815;DHT22;20121;51.910;8.406;2022-09-23T04:02:15;8.00;99.90
33815;DHT22;20121;51.910;8.406;2022-09-23T04:04:41;7.90;99.90
33815;DHT22;20121;51.910;8.406;2022-09-23T04:07:08;7.90;99.90
33815;DHT22;20121;51.910;8.406;2022-09-23T04:09:34;7.90;99.90
33815;DHT22;20121;51.910;8.406;2022-09-23T04:12:00;7.90;99.90
33815;DHT22;20121;51.910;8.406;2022-09-23T04:14:25;7.90;99.90
33815;DHT22;20121;51.910;8.406;2022-09-23T04:16:51;7.90;99.90
33815;DHT22;20121;51.910;8.406;2022-09-23T04:19:17;7.90;99.90
33815;DHT22;20121;51.910;8.406;2022-09-23T04:21:44;7.90;99.90
33815;DHT22;20121;51.910;8.406;2022-09-23T04:24:10;7.80;99.90
33815;DHT22;20121;51.910;8.406;2022-09-23T04:26:37;7.80;99.90
33815;DHT22;20121;51.910;8.406;2022-09-23T04:29:03;7.80;99.90
33815;DHT22;20121;51.910;8.406;2022-09-23T04:31:32;7.80;99.90
33815;DHT22;20121;51.910;8.406;2022-09-23T04:33:58;7.80;99.90
33815;DHT22;20121;51.910;8.406;2022-09-23T04:36:25;7.80;99.90
33815;DHT22;20121;51.910;8.406;2022-09-23T04:38:50;7.90;99.90
33815;DHT22;20121;51.910;8.406;2022-09-23T04:41:17;7.80;99.90
33815;DHT22;20121;51.910;8.406;2022-09-23T04:43:43;7.80;99.90
33815;DHT22;20121;51.910;8.406;2022-09-23T04:46:11;7.80;99.90
33815;DHT22;20121;51.910;8.406;2022-09-23T04:48:38;7.80;99.90
33815;DHT22;20121;51.910;8.406;2022-09-23T04:51:18;7.80;99.90
33815;DHT22;20121;51.910;8.406;2022-09-23T04:53:45;7.80;99.90
33815;DHT22;20121;51.910;8.406;2022-09-23T04:56:17;7.80;99.90
33815;DHT22;20121;51.910;8.406;2022-09-23T04:58:44;7.80;99.90
33815;DHT22;20121;51.910;8.406;2022-09-23T05:01:18;7.80;99.90
33815;DHT22;20121;51.910;8.406;2022-09-23T05:03:48;7.70;99.90
33815;DHT22;20121;51.910;8.406;2022-09-23T05:06:14;7.70;99.90
33815;DHT22;20121;51.910;8.406;2022-09-23T05:08:40;7.70;99.90
33815;DHT22;20121;51.910;8.406;2022-09-23T05:11:07;7.70;99.90
33815;DHT22;20121;51.910;8.406;2022-09-23T05:13:33;7.70;99.90
33815;DHT22;20121;51.910;8.406;2022-09-23T05:16:07;7.60;99.90
33815;DHT22;20121;51.910;8.406;2022-09-23T05:18:34;7.70;99.90
33815;DHT22;20121;51.910;8.406;2022-09-23T05:21:01;7.70;99.90
33815;DHT22;20121;51.910;8.406;2022-09-23T05:23:27;7.60;99.90
33815;DHT22;20121;51.910;8.406;2022-09-23T05:26:05;8.10;99.90
33815;DHT22;20121;51.910;8.406;2022-09-23T05:28:32;7.60;99.90
33815;DHT22;20121;51.910;8.406;2022-09-23T05:31:08;7.60;99.90
33815;DHT22;20121;51.910;8.406;2022-09-23T05:33:36;7.60;99.90
33815;DHT22;20121;51.910;8.406;2022-09-23T05:36:03;7.40;99.90
33815;DHT22;20121;51.910;8.406;2022-09-23T05:38:30;7.60;99.90
33815;DHT22;20121;51.910;8.406;2022-09-23T05:41:01;7.60;99.90
33815;DHT22;20121;51.910;8.406;2022-09-23T05:43:28;7.60;99.90
33815;DHT22;20121;51.910;8.406;2022-09-23T05:46:09;7.50;99.90
33815;DHT22;20121;51.910;8.406;2022-09-23T05:48:35;7.60;99.90
33815;DHT22;20121;51.910;8.406;2022-09-23T05:51:02;7.60;99.90
33815;DHT22;20121;51.910;8.406;2022-09-23T05:53:29;7.70;99.90
33815;DHT22;20121;51.910;8.406;2022-09-23T05:55:55;7.70;99.90
33815;DHT22;20121;51.910;8.406;2022-09-23T05:58:21;7.70;99.90
33815;DHT22;20121;51.910;8.406;2022-09-23T06:00:49;7.70;99.90
33815;DHT22;20121;51.910;8.406;2022-09-23T06:03:17;7.70;99.90
33815;DHT22;20121;51.910;8.406;2022-09-23T06:05:43;7.70;99.90
33815;DHT22;20121;51.910;8.406;2022-09-23T06:10:39;7.80;99.90
33815;DHT22;20121;51.910;8.406;2022-09-23T06:13:06;7.80;99.90
33815;DHT22;20121;51.910;8.406;2022-09-23T06:15:33;7.90;99.90
33815;DHT22;20121;51.910;8.406;2022-09-23T06:17:59;7.90;99.90
33815;DHT22;20121;51.910;8.406;2022-09-23T06:20:25;8.00;99.90
33815;DHT22;20121;51.910;8.406;2022-09-23T06:22:51;8.00;99.90
33815;DHT22;20121;51.910;8.406;2022-09-23T06:25:16;8.10;99.90
33815;DHT22;20121;51.910;8.406;2022-09-23T06:27:53;8.40;99.90
33815;DHT22;20121;51.910;8.406;2022-09-23T06:30:20;8.20;99.90
33815;DHT22;20121;51.910;8.406;2022-09-23T06:32:50;8.30;99.90
33815;DHT22;20121;51.910;8.406;2022-09-23T06:35:20;8.50;99.90
33815;DHT22;20121;51.910;8.406;2022-09-23T06:37:47;8.60;99.90
33815;DHT22;20121;51.910;8.406;2022-09-23T06:40:13;8.70;99.90
33815;DHT22;20121;51.910;8.406;2022-09-23T06:42:39;8.80;99.90
33815;DHT22;20121;51.910;8.406;2022-09-23T06:45:06;8.90;99.90
33815;DHT22;20121;51.910;8.406;2022-09-23T06:47:31;9.10;99.90
33815;DHT22;20121;51.910;8.406;2022-09-23T06:49:57;9.20;99.90
33815;DHT22;20121;51.910;8.406;2022-09-23T06:52:23;9.30;99.90
33815;DHT22;20121;51.910;8.406;2022-09-23T06:54:49;9.40;99.90
33815;DHT22;20121;51.910;8.406;2022-09-23T06:57:16;9.50;99.90
33815;DHT22;20121;51.910;8.406;2022-09-23T06:59:41;9.60;99.90
33815;DHT22;20121;51.910;8.406;2022-09-23T07:02:10;9.70;99.90
33815;DHT22;20121;51.910;8.406;2022-09-23T07:04:35;9.80;99.90
33815;DHT22;20121;51.910;8.406;2022-09-23T07:07:01;9.80;99.90
33815;DHT22;20121;51.910;8.406;2022-09-23T07:09:27;9.90;99.90
33815;DHT22;20121;51.910;8.406;2022-09-23T07:11:53;10.00;99.90
33815;DHT22;20121;51.910;8.406;2022-09-23T07:14:19;10.00;99.90
33815;DHT22;20121;51.910;8.406;2022-09-23T07:16:47;10.10;99.90
33815;DHT22;20121;51.910;8.406;2022-09-23T07:19:13;10.10;99.90
33815;DHT22;20121;51.910;8.406;2022-09-23T07:21:39;10.20;99.90
33815;DHT22;20121;51.910;8.406;2022-09-23T07:24:05;10.20;99.90
33815;DHT22;20121;51.910;8.406;2022-09-23T07:26:32;10.30;99.90
33815;DHT22;20121;51.910;8.406;2022-09-23T07:29:00;10.40;99.90
33815;DHT22;20121;51.910;8.406;2022-09-23T07:31:33;10.50;99.90
33815;DHT22;20121;51.910;8.406;2022-09-23T07:33:59;10.70;99.90
33815;DHT22;20121;51.910;8.406;2022-09-23T07:36:25;10.80;99.90
33815;DHT22;20121;51.910;8.406;2022-09-23T07:38:53;10.90;99.90
33815;DHT22;20121;51.910;8.406;2022-09-23T07:41:28;11.00;99.90
33815;DHT22;20121;51.910;8.406;2022-09-23T07:43:55;11.20;99.90
33815;DHT22;20121;51.910;8.406;2022-09-23T07:46:24;11.30;99.90
33815;DHT22;20121;51.910;8.406;2022-09-23T07:48:50;11.40;99.90
33815;DHT22;20121;51.910;8.406;2022-09-23T07:51:23;11.50;99.90
33815;DHT22;20121;51.910;8.406;2022-09-23T07:53:50;11.60;99.90
33815;DHT22;20121;51.910;8.406;2022-09-23T07:56:17;11.70;99.90
33815;DHT22;20121;51.910;8.406;2022-09-23T07:58:44;11.80;99.90
33815;DHT22;20121;51.910;8.406;2022-09-23T08:01:10;12.00;99.90
33815;DHT22;20121;51.910;8.406;2022-09-23T08:03:37;12.10;99.90
33815;DHT22;20121;51.910;8.406;2022-09-23T08:06:07;12.00;99.90
33815;DHT22;20121;51.910;8.406;2022-09-23T08:08:33;12.30;99.90
33815;DHT22;20121;51.910;8.406;2022-09-23T08:11:04;12.50;99.90
33815;DHT22;20121;51.910;8.406;2022-09-23T08:13:31;12.60;99.90
33815;DHT22;20121;51.910;8.406;2022-09-23T08:15:57;12.70;99.90
33815;DHT22;20121;51.910;8.406;2022-09-23T08:18:23;12.80;99.90
33815;DHT22;20121;51.910;8.406;2022-09-23T08:20:48;13.00;99.90
33815;DHT22;20121;51.910;8.406;2022-09-23T08:23:15;13.20;99.90
33815;DHT22;20121;51.910;8.406;2022-09-23T08:25:43;13.30;99.90
33815;DHT22;20121;51.910;8.406;2022-09-23T08:28:15;13.50;99.90
33815;DHT22;20121;51.910;8.406;2022-09-23T08:30:47;13.70;99.90
33815;DHT22;20121;51.910;8.406;2022-09-23T08:33:13;14.00;99.90
33815;DHT22;20121;51.910;8.406;2022-09-23T08:35:39;14.20;99.90
33815;DHT22;20121;51.910;8.406;2022-09-23T08:38:06;14.40;99.90
33815;DHT22;20121;51.910;8.406;2022-09-23T08:40:38;14.60;99.90
33815;DHT22;20121;51.910;8.406;2022-09-23T08:43:05;14.80;99.90
33815;DHT22;20121;51.910;8.406;2022-09-23T08:45:33;15.00;99.90
33815;DHT22;20121;51.910;8.406;2022-09-23T08:48:06;15.20;99.90
33815;DHT22;20121;51.910;8.406;2022-09-23T08:50:40;15.40;99.90
33815;DHT22;20121;51.910;8.406;2022-09-23T08:55:50;15.60;99.90
33815;DHT22;20121;51.910;8.406;2022-09-23T09:01:20;15.90;99.90
33815;DHT22;20121;51.910;8.406;2022-09-23T09:03:51;16.10;99.90
33815;DHT22;20121;51.910;8.406;2022-09-23T09:06:40;16.40;99.90
33815;DHT22;20121;51.910;8.406;2022-09-23T09:09:17;16.60;99.20
33815;DHT22;20121;51.910;8.406;2022-09-23T09:11:45;16.80;98.30
33815;DHT22;20121;51.910;8.406;2022-09-23T09:17:09;17.10;97.80
33815;DHT22;20121;51.910;8.406;2022-09-23T09:22:49;17.20;96.90
33815;DHT22;20121;51.910;8.406;2022-09-23T09:25:43;17.40;99.30
33815;DHT22;20121;51.910;8.406;2022-09-23T09:28:27;17.40;97.10
33815;DHT22;20121;51.910;8.406;2022-09-23T09:30:59;17.50;96.70
33815;DHT22;20121;51.910;8.406;2022-09-23T09:33:46;17.50;95.90
33815;DHT22;20121;51.910;8.406;2022-09-23T09:38:54;17.50;95.80
33815;DHT22;20121;51.910;8.406;2022-09-23T09:41:26;17.40;95.80
33815;DHT22;20121;51.910;8.406;2022-09-23T09:43:53;17.50;96.00
33815;DHT22;20121;51.910;8.406;2022-09-23T09:52:19;18.10;99.20
33815;DHT22;20121;51.910;8.406;2022-09-23T09:54:47;18.20;96.20
33815;DHT22;20121;51.910;8.406;2022-09-23T09:57:37;18.40;96.10
33815;DHT22;20121;51.910;8.406;2022-09-23T10:02:52;18.60;95.30
33815;DHT22;20121;51.910;8.406;2022-09-23T10:05:30;18.80;95.60
33815;DHT22;20121;51.910;8.406;2022-09-23T10:08:20;18.80;95.30
33815;DHT22;20121;51.910;8.406;2022-09-23T10:13:28;18.80;94.10
33815;DHT22;20121;51.910;8.406;2022-09-23T10:15:55;18.70;96.70
33815;DHT22;20121;51.910;8.406;2022-09-23T10:18:47;18.90;93.70
33815;DHT22;20121;51.910;8.406;2022-09-23T10:21:16;18.90;93.90
33815;DHT22;20121;51.910;8.406;2022-09-23T10:23:47;19.00;94.70
33815;DHT22;20121;51.910;8.406;2022-09-23T10:26:13;19.10;94.30
33815;DHT22;20121;51.910;8.406;2022-09-23T10:28:54;19.10;93.70
33815;DHT22;20121;51.910;8.406;2022-09-23T10:31:29;19.10;93.70
33815;DHT22;20121;51.910;8.406;2022-09-23T10:34:28;19.10;94.20
33815;DHT22;20121;51.910;8.406;2022-09-23T10:37:08;19.10;93.80
33815;DHT22;20121;51.910;8.406;2022-09-23T10:39:38;19.10;93.90
33815;DHT22;20121;51.910;8.406;2022-09-23T10:42:50;19.10;94.00
33815;DHT22;20121;51.910;8.406;2022-09-23T10:45:38;19.10;93.60
33815;DHT22;20121;51.910;8.406;2022-09-23T10:48:54;19.10;93.80
33815;DHT22;20121;51.910;8.406;2022-09-23T10:51:35;19.10;93.60
33815;DHT22;20121;51.910;8.406;2022-09-23T10:56:57;19.00;93.20
33815;DHT22;20121;51.910;8.406;2022-09-23T11:11:34;19.00;93.10
33815;DHT22;20121;51.910;8.406;2022-09-23T11:20:35;18.80;93.20
33815;DHT22;20121;51.910;8.406;2022-09-23T11:28:44;19.20;93.40
33815;DHT22;20121;51.910;8.406;2022-09-23T11:37:12;19.20;92.30
33815;DHT22;20121;51.910;8.406;2022-09-23T11:39:43;19.30;93.00
33815;DHT22;20121;51.910;8.406;2022-09-23T11:42:20;19.10;92.10
33815;DHT22;20121;51.910;8.406;2022-09-23T11:44:57;19.20;92.50
33815;DHT22;20121;51.910;8.406;2022-09-23T11:47:43;19.20;92.20
33815;DHT22;20121;51.910;8.406;2022-09-23T11:50:30;19.10;92.20
33815;DHT22;20121;51.910;8.406;2022-09-23T11:53:08;18.80;96.20
33815;DHT22;20121;51.910;8.406;2022-09-23T11:55:43;19.10;93.30
33815;DHT22;20121;51.910;8.406;2022-09-23T11:58:25;19.10;93.10
33815;DHT22;20121;51.910;8.406;2022-09-23T12:01:00;19.00;93.10
33815;DHT22;20121;51.910;8.406;2022-09-23T12:03:41;19.00;93.20
33815;DHT22;20121;51.910;8.406;2022-09-23T12:06:20;19.00;92.90
33815;DHT22;20121;51.910;8.406;2022-09-23T12:08:49;19.00;93.40
33815;DHT22;20121;51.910;8.406;2022-09-23T12:11:21;19.00;93.00
33815;DHT22;20121;51.910;8.406;2022-09-23T12:13:54;19.00;92.80
33815;DHT22;20121;51.910;8.406;2022-09-23T12:22:12;19.00;92.60
33815;DHT22;20121;51.910;8.406;2022-09-23T12:24:56;19.10;92.30
33815;DHT22;20121;51.910;8.406;2022-09-23T12:27:37;19.10;92.10
33815;DHT22;20121;51.910;8.406;2022-09-23T12:30:13;19.10;92.40
33815;DHT22;20121;51.910;8.406;2022-09-23T12:32:39;19.20;92.30
33815;DHT22;20121;51.910;8.406;2022-09-23T12:35:29;19.20;92.30
33815;DHT22;20121;51.910;8.406;2022-09-23T12:37:58;19.40;92.30
33815;DHT22;20121;51.910;8.406;2022-09-23T12:40:32;19.50;91.50
33815;DHT22;20121;51.910;8.406;2022-09-23T12:42:59;19.50;90.70
33815;DHT22;20121;51.910;8.406;2022-09-23T12:48:02;19.50;91.30
33815;DHT22;20121;51.910;8.406;2022-09-23T12:50:55;19.50;90.50
33815;DHT22;20121;51.910;8.406;2022-09-23T12:56:01;19.10;93.30
33815;DHT22;20121;51.910;8.406;2022-09-23T12:58:56;19.50;91.00
33815;DHT22;20121;51.910;8.406;2022-09-23T13:01:23;19.50;90.90
33815;DHT22;20121;51.910;8.406;2022-09-23T13:03:51;19.50;90.50
33815;DHT22;20121;51.910;8.406;2022-09-23T13:06:42;19.50;89.40
33815;DHT22;20121;51.910;8.406;2022-09-23T13:09:19;19.60;90.10
33815;DHT22;20121;51.910;8.406;2022-09-23T13:11:45;19.70;90.70
33815;DHT22;20121;51.910;8.406;2022-09-23T13:14:16;19.70;90.90
33815;DHT22;20121;51.910;8.406;2022-09-23T13:16:44;19.80;90.60
33815;DHT22;20121;51.910;8.406;2022-09-23T13:22:08;19.90;89.80
33815;DHT22;20121;51.910;8.406;2022-09-23T13:27:31;20.00;88.10
33815;DHT22;20121;51.910;8.406;2022-09-23T13:30:04;20.00;87.70
33815;DHT22;20121;51.910;8.406;2022-09-23T13:32:37;19.90;88.50
33815;DHT22;20121;51.910;8.406;2022-09-23T13:35:19;19.90;88.80
33815;DHT22;20121;51.910;8.406;2022-09-23T13:37:48;19.90;89.00
33815;DHT22;20121;51.910;8.406;2022-09-23T13:40:26;20.00;88.70
33815;DHT22;20121;51.910;8.406;2022-09-23T13:42:59;20.00;86.60
33815;DHT22;20121;51.910;8.406;2022-09-23T13:45:27;19.90;88.10
33815;DHT22;20121;51.910;8.406;2022-09-23T13:47:57;19.90;88.50
33815;DHT22;20121;51.910;8.406;2022-09-23T13:50:25;19.90;87.90
33815;DHT22;20121;51.910;8.406;2022-09-23T13:52:53;19.90;87.40
33815;DHT22;20121;51.910;8.406;2022-09-23T13:55:34;19.80;86.10
33815;DHT22;20121;51.910;8.406;2022-09-23T13:58:10;19.70;86.10
33815;DHT22;20121;51.910;8.406;2022-09-23T14:00:37;19.70;88.70
33815;DHT22;20121;51.910;8.406;2022-09-23T14:05:47;19.60;87.70
33815;DHT22;20121;51.910;8.406;2022-09-23T14:08:13;19.50;89.70
33815;DHT22;20121;51.910;8.406;2022-09-23T14:10:39;19.50;88.40
33815;DHT22;20121;51.910;8.406;2022-09-23T14:13:19;19.50;89.20
33815;DHT22;20121;51.910;8.406;2022-09-23T14:15:46;19.50;89.00
33815;DHT22;20121;51.910;8.406;2022-09-23T14:20:51;19.40;89.10
33815;DHT22;20121;51.910;8.406;2022-09-23T14:23:17;19.40;90.00
33815;DHT22;20121;51.910;8.406;2022-09-23T14:25:43;19.30;90.10
33815;DHT22;20121;51.910;8.406;2022-09-23T14:28:20;19.30;90.00
33815;DHT22;20121;51.910;8.406;2022-09-23T14:30:50;19.20;88.30
33815;DHT22;20121;51.910;8.406;2022-09-23T14:33:21;19.10;87.70
33815;DHT22;20121;51.910;8.406;2022-09-23T14:35:51;19.00;87.90
33815;DHT22;20121;51.910;8.406;2022-09-23T14:38:25;19.00;88.50
33815;DHT22;20121;51.910;8.406;2022-09-23T14:41:23;18.90;89.20
33815;DHT22;20121;51.910;8.406;2022-09-23T14:46:18;18.90;89.30
33815;DHT22;20121;51.910;8.406;2022-09-23T14:48:55;18.90;89.60
33815;DHT22;20121;51.910;8.406;2022-09-23T14:51:31;18.90;90.10
33815;DHT22;20121;51.910;8.406;2022-09-23T14:56:50;18.80;89.50
33815;DHT22;20121;51.910;8.406;2022-09-23T14:59:32;18.80;88.70
33815;DHT22;20121;51.910;8.406;2022-09-23T15:01:58;18.80;89.00
33815;DHT22;20121;51.910;8.406;2022-09-23T15:09:34;18.70;88.90
33815;DHT22;20121;51.910;8.406;2022-09-23T15:12:05;18.80;89.50
33815;DHT22;20121;51.910;8.406;2022-09-23T15:14:36;18.80;90.10
33815;DHT22;20121;51.910;8.406;2022-09-23T15:17:12;18.70;89.20
33815;DHT22;20121;51.910;8.406;2022-09-23T15:19:38;18.70;89.90
33815;DHT22;20121;51.910;8.406;2022-09-23T15:22:06;18.70;89.20
33815;DHT22;20121;51.910;8.406;2022-09-23T15:24:43;18.70;89.70
33815;DHT22;20121;51.910;8.406;2022-09-23T15:27:32;18.70;90.30
33815;DHT22;20121;51.910;8.406;2022-09-23T15:30:16;18.60;90.30
33815;DHT22;20121;51.910;8.406;2022-09-23T15:32:45;18.60;90.40
33815;DHT22;20121;51.910;8.406;2022-09-23T15:35:16;18.60;90.50
33815;DHT22;20121;51.910;8.406;2022-09-23T15:37:44;18.50;91.10
33815;DHT22;20121;51.910;8.406;2022-09-23T15:40:20;18.50;90.90
33815;DHT22;20121;51.910;8.406;2022-09-23T15:42:46;18.40;91.20
33815;DHT22;20121;51.910;8.406;2022-09-23T15:45:16;18.40;91.10
33815;DHT22;20121;51.910;8.406;2022-09-23T15:47:44;18.40;90.90
33815;DHT22;20121;51.910;8.406;2022-09-23T15:50:11;18.30;90.90
33815;DHT22;20121;51.910;8.406;2022-09-23T15:52:37;18.30;91.00
33815;DHT22;20121;51.910;8.406;2022-09-23T15:55:15;18.30;91.00
33815;DHT22;20121;51.910;8.406;2022-09-23T15:57:41;18.20;91.00
33815;DHT22;20121;51.910;8.406;2022-09-23T16:00:08;18.20;91.30
33815;DHT22;20121;51.910;8.406;2022-09-23T16:02:33;18.20;91.60
33815;DHT22;20121;51.910;8.406;2022-09-23T16:04:59;18.20;91.90
33815;DHT22;20121;51.910;8.406;2022-09-23T16:07:27;18.10;91.60
33815;DHT22;20121;51.910;8.406;2022-09-23T16:09:52;18.10;91.70
33815;DHT22;20121;51.910;8.406;2022-09-23T16:12:19;18.10;92.00
33815;DHT22;20121;51.910;8.406;2022-09-23T16:14:45;18.00;92.00
33815;DHT22;20121;51.910;8.406;2022-09-23T16:17:11;18.00;92.10
33815;DHT22;20121;51.910;8.406;2022-09-23T16:19:38;17.90;92.40
33815;DHT22;20121;51.910;8.406;2022-09-23T16:22:04;17.90;92.30
33815;DHT22;20121;51.910;8.406;2022-09-23T16:24:29;17.90;92.20
33815;DHT22;20121;51.910;8.406;2022-09-23T16:26:56;17.90;92.60
33815;DHT22;20121;51.910;8.406;2022-09-23T16:29:25;17.80;92.70
33815;DHT22;20121;51.910;8.406;2022-09-23T16:31:52;17.80;93.20
33815;DHT22;20121;51.910;8.406;2022-09-23T16:34:17;17.70;93.60
33815;DHT22;20121;51.910;8.406;2022-09-23T16:36:45;17.70;94.00
33815;DHT22;20121;51.910;8.406;2022-09-23T16:39:12;17.60;94.10
33815;DHT22;20121;51.910;8.406;2022-09-23T16:41:38;17.60;94.00
33815;DHT22;20121;51.910;8.406;2022-09-23T16:44:06;17.50;94.10
33815;DHT22;20121;51.910;8.406;2022-09-23T16:46:33;17.50;94.30
33815;DHT22;20121;51.910;8.406;2022-09-23T16:48:58;17.40;94.50
33815;DHT22;20121;51.910;8.406;2022-09-23T16:51:29;17.40;94.50
33815;DHT22;20121;51.910;8.406;2022-09-23T16:53:57;17.30;94.20
33815;DHT22;20121;51.910;8.406;2022-09-23T16:56:26;17.20;94.20
33815;DHT22;20121;51.910;8.406;2022-09-23T16:58:52;17.20;94.60
33815;DHT22;20121;51.910;8.406;2022-09-23T17:01:24;17.10;95.00
33815;DHT22;20121;51.910;8.406;2022-09-23T17:04:09;17.10;95.60
33815;DHT22;20121;51.910;8.406;2022-09-23T17:06:46;17.10;96.00
33815;DHT22;20121;51.910;8.406;2022-09-23T17:09:15;17.00;96.40
33815;DHT22;20121;51.910;8.406;2022-09-23T17:11:41;17.00;96.70
33815;DHT22;20121;51.910;8.406;2022-09-23T17:14:16;16.90;96.80
33815;DHT22;20121;51.910;8.406;2022-09-23T17:16:42;16.90;96.90
33815;DHT22;20121;51.910;8.406;2022-09-23T17:19:09;16.80;96.70
33815;DHT22;20121;51.910;8.406;2022-09-23T17:21:35;16.80;96.70
33815;DHT22;20121;51.910;8.406;2022-09-23T17:24:01;16.70;96.90
33815;DHT22;20121;51.910;8.406;2022-09-23T17:26:27;16.70;96.70
33815;DHT22;20121;51.910;8.406;2022-09-23T17:28:54;16.60;96.40
33815;DHT22;20121;51.910;8.406;2022-09-23T17:31:21;16.50;96.40
33815;DHT22;20121;51.910;8.406;2022-09-23T17:33:48;16.40;96.30
33815;DHT22;20121;51.910;8.406;2022-09-23T17:36:14;16.40;96.30
33815;DHT22;20121;51.910;8.406;2022-09-23T17:38:44;16.30;96.30
33815;DHT22;20121;51.910;8.406;2022-09-23T17:41:11;16.30;96.30
33815;DHT22;20121;51.910;8.406;2022-09-23T17:43:38;16.30;96.40
33815;DHT22;20121;51.910;8.406;2022-09-23T17:46:09;17.10;99.90
33815;DHT22;20121;51.910;8.406;2022-09-23T17:48:37;16.30;96.70
33815;DHT22;20121;51.910;8.406;2022-09-23T17:51:05;16.30;96.90
33815;DHT22;20121;51.910;8.406;2022-09-23T17:53:35;16.30;97.10
33815;DHT22;20121;51.910;8.406;2022-09-23T17:56:04;16.40;99.90
33815;DHT22;20121;51.910;8.406;2022-09-23T17:58:33;16.20;97.40
33815;DHT22;20121;51.910;8.406;2022-09-23T18:00:59;16.10;97.60
33815;DHT22;20121;51.910;8.406;2022-09-23T18:03:26;16.10;97.70
33815;DHT22;20121;51.910;8.406;2022-09-23T18:05:53;16.30;99.90
33815;DHT22;20121;51.910;8.406;2022-09-23T18:08:19;16.00;97.80
33815;DHT22;20121;51.910;8.406;2022-09-23T18:10:45;16.00;97.90
33815;DHT22;20121;51.910;8.406;2022-09-23T18:13:11;16.00;98.10
33815;DHT22;20121;51.910;8.406;2022-09-23T18:15:37;15.90;98.40
33815;DHT22;20121;51.910;8.406;2022-09-23T18:18:04;15.90;98.80
33815;DHT22;20121;51.910;8.406;2022-09-23T18:20:30;15.90;98.90
33815;DHT22;20121;51.910;8.406;2022-09-23T18:22:57;15.90;99.10